Terminal Aerodrome Forecast
Issued by NWS

Home | Current Version | Previous Version | Text Only | Print | Product List | Glossary On
Versions: 1 2 3 4 5 6 7 8 9 10 11 12 13 14 15 16 17 18 19 20 21 22 23 24 25 26 27 28
000
FTUS43 KLSX 181100
TAFCPS
TAF
KCPS 181130Z 1812/1912 00000KT 3SM BR BKN006
     FM181400 VRB03KT P6SM BKN010
     FM181500 15004KT P6SM SCT020
     FM190000 VRB02KT P6SM SCT030=

USA.gov is the U.S. government's official web portal to all federal, state and local government web resources and services.